Time;durP1;ratioP1;P1;durP2;ratioP2;P2;SDS_P1;SDS_P2;PMS_P1;PMS_P2;Temp;Humidity;BMP_temperature;BMP_pressure;BME280_temperature;BME280_humidity;BME280_pressure;Samples;Min_cycle;Max_cycle;Signal;HPM_P1;HPM_P2
2024/01/07 00:02:26;;;;;;;;;;;;;;;7.72;100.00;98724.69;6298003;28;20062;-77
2024/01/07 00:05:26;;;;;;;;;;;;;;;7.74;100.00;98728.00;6297983;28;19924;-77
2024/01/07 00:08:29;;;;;;;;;;;;;;;7.49;100.00;98734.06;6299366;28;19927;-78
2024/01/07 00:11:30;;;;;;;;;;;;;;;7.58;100.00;98732.59;6297908;28;19927;-78
2024/01/07 00:14:31;;;;;;;;;;;;;;;7.57;100.00;98726.56;6331731;28;20277;-77
2024/01/07 00:17:32;;;;;;;;;;;;;;;7.58;100.00;98723.03;6298856;28;19920;-78
2024/01/07 00:20:32;;;;;;;;;;;;;;;7.54;100.00;98724.19;6298197;28;20426;-76
2024/01/07 00:23:33;;;;;;;;;;;;;;;7.66;100.00;98730.31;6298036;28;19927;-76
2024/01/07 00:26:34;;;;;;;;;;;;;;;7.59;100.00;98724.69;6297516;28;19928;-76
2024/01/07 00:29:37;;;;;;;;;;;;;;;7.66;100.00;98725.94;6298766;28;20306;-76
2024/01/07 00:32:38;;;;;;;;;;;;;;;7.66;100.00;98720.75;6298588;28;20261;-76
2024/01/07 00:35:39;;;;;;;;;;;;;;;7.63;100.00;98723.53;6297355;28;19931;-76
2024/01/07 00:38:39;;;;;;;;;;;;;;;7.66;100.00;98722.50;6298378;28;19975;-76
2024/01/07 00:41:40;;;;;;;;;;;;;;;7.60;100.00;98718.56;6297206;28;19970;-75
2024/01/07 00:44:41;;;;;;;;;;;;;;;7.67;100.00;98721.56;6330940;28;20335;-76
2024/01/07 00:47:41;;;;;;;;;;;;;;;7.67;100.00;98719.78;6297222;28;19924;-76
2024/01/07 00:50:42;;;;;;;;;;;;;;;7.78;100.00;98707.81;6298108;28;19920;-76
2024/01/07 00:53:44;;;;;;;;;;;;;;;7.77;100.00;98708.78;6297756;28;20284;-76
2024/01/07 00:56:45;;;;;;;;;;;;;;;7.65;100.00;98707.84;6296881;28;20311;-76
2024/01/07 00:59:45;;;;;;;;;;;;;;;7.79;100.00;98706.88;6297782;28;20331;-76
2024/01/07 01:02:46;;;;;;;;;;;;;;;7.80;100.00;98705.94;6297599;28;19920;-76
2024/01/07 01:05:47;;;;;;;;;;;;;;;7.72;100.00;98713.44;6330087;28;19924;-72
2024/01/07 01:08:48;;;;;;;;;;;;;;;7.74;100.00;98701.19;6296412;28;20378;-72
2024/01/07 01:11:49;;;;;;;;;;;;;;;7.63;100.00;98689.78;6297402;28;19927;-72
2024/01/07 01:14:50;;;;;;;;;;;;;;;7.58;100.00;98696.25;6297650;28;19947;-72
2024/01/07 01:17:50;;;;;;;;;;;;;;;7.61;100.00;98691.66;6297129;28;20286;-72
2024/01/07 01:20:51;;;;;;;;;;;;;;;7.60;100.00;98676.22;6296059;28;19920;-72
2024/01/07 01:23:52;;;;;;;;;;;;;;;7.56;100.00;98679.97;6297285;28;20292;-72
2024/01/07 01:26:53;;;;;;;;;;;;;;;7.44;100.00;98686.84;6297224;28;19921;-75
2024/01/07 01:29:54;;;;;;;;;;;;;;;7.46;100.00;98682.38;6296223;28;19930;-76
2024/01/07 01:32:54;;;;;;;;;;;;;;;7.50;100.00;98683.00;6297109;28;20438;-75
2024/01/07 01:35:55;;;;;;;;;;;;;;;7.39;100.00;98681.97;6329747;28;19920;-75
2024/01/07 01:38:56;;;;;;;;;;;;;;;7.45;100.00;98680.69;6329583;28;19924;-76
2024/01/07 01:41:58;;;;;;;;;;;;;;;7.44;100.00;98676.47;6297023;28;19921;-75
2024/01/07 01:45:01;;;;;;;;;;;;;;;7.47;100.00;98674.47;6329268;28;19920;-77
2024/01/07 01:48:02;;;;;;;;;;;;;;;7.54;100.00;98664.50;6295803;28;20384;-77
2024/01/07 01:51:06;;;;;;;;;;;;;;;7.46;100.00;98661.59;6295739;28;19920;-78
2024/01/07 01:54:07;;;;;;;;;;;;;;;7.54;100.00;98667.09;6296746;28;19927;-78
2024/01/07 01:57:13;;;;;;;;;;;;;;;7.55;100.00;98660.94;6296912;28;20023;-78
2024/01/07 02:00:14;;;;;;;;;;;;;;;7.50;100.00;98657.03;6295982;28;19970;-78
2024/01/07 02:03:15;;;;;;;;;;;;;;;7.60;100.00;98650.25;6295406;28;20296;-78
2024/01/07 02:06:19;;;;;;;;;;;;;;;7.58;100.00;98649.53;6296705;28;19920;-78
2024/01/07 02:09:22;;;;;;;;;;;;;;;7.62;100.00;98645.78;6301958;28;19920;-78
2024/01/07 02:12:24;;;;;;;;;;;;;;;7.55;100.00;98644.53;6301880;28;19979;-78
2024/01/07 02:15:27;;;;;;;;;;;;;;;7.58;100.00;98652.97;6300871;28;19978;-77
2024/01/07 02:18:28;;;;;;;;;;;;;;;7.63;100.00;98648.25;6301753;28;19927;-78
2024/01/07 02:21:29;;;;;;;;;;;;;;;7.62;100.00;98646.59;6301760;28;20283;-78
2024/01/07 02:24:30;;;;;;;;;;;;;;;7.70;100.00;98643.47;6301610;28;19920;-78
2024/01/07 02:27:31;;;;;;;;;;;;;;;7.66;100.00;98639.44;6301506;28;20405;-78
2024/01/07 02:30:32;;;;;;;;;;;;;;;7.74;100.00;98637.13;6301600;28;19920;-78
2024/01/07 02:33:32;;;;;;;;;;;;;;;7.69;100.00;98620.22;6300023;28;19973;-77
2024/01/07 02:36:33;;;;;;;;;;;;;;;7.54;100.00;98625.56;6301163;28;19920;-78
2024/01/07 02:39:36;;;;;;;;;;;;;;;7.66;100.00;98629.06;6301189;28;20003;-77
2024/01/07 02:42:37;;;;;;;;;;;;;;;7.56;100.00;98628.06;6300126;28;19925;-77
2024/01/07 02:45:38;;;;;;;;;;;;;;;7.61;100.00;98626.75;6300805;28;19959;-77
2024/01/07 02:48:38;;;;;;;;;;;;;;;7.64;100.00;98625.75;6301361;28;19920;-77
2024/01/07 02:51:39;;;;;;;;;;;;;;;7.63;100.00;98611.91;6300901;28;19920;-77
2024/01/07 02:54:42;;;;;;;;;;;;;;;7.64;100.00;98615.34;6300954;28;19920;-77
2024/01/07 02:57:43;;;;;;;;;;;;;;;7.61;100.00;98625.94;6333549;28;19924;-77
2024/01/07 03:00:46;;;;;;;;;;;;;;;7.55;100.00;98616.00;6300909;28;19920;-77
2024/01/07 03:03:47;;;;;;;;;;;;;;;7.61;100.00;98618.97;6299217;28;19954;-77
2024/01/07 03:06:53;;;;;;;;;;;;;;;7.50;100.00;98612.91;6300468;28;19950;-77
2024/01/07 03:09:54;;;;;;;;;;;;;;;7.40;100.00;98613.56;6300452;28;19956;-77
2024/01/07 03:12:55;;;;;;;;;;;;;;;7.60;100.00;98613.91;6299232;28;20403;-77
2024/01/07 03:15:56;;;;;;;;;;;;;;;7.64;100.00;98604.97;6300327;28;20292;-77
2024/01/07 03:18:56;;;;;;;;;;;;;;;7.65;100.00;98611.81;6297881;28;19920;-77
2024/01/07 03:21:57;;;;;;;;;;;;;;;7.65;100.00;98606.63;6299331;28;20061;-77
2024/01/07 03:24:58;;;;;;;;;;;;;;;7.50;100.00;98607.72;6299017;28;19928;-77
2024/01/07 03:27:59;;;;;;;;;;;;;;;7.38;100.00;98605.03;6299884;28;20387;-73
2024/01/07 03:31:03;;;;;;;;;;;;;;;7.51;100.00;98602.41;6332644;28;19924;-73
2024/01/07 03:34:04;;;;;;;;;;;;;;;7.50;100.00;98607.72;6299763;28;19925;-74
2024/01/07 03:37:05;;;;;;;;;;;;;;;7.58;100.00;98600.22;6298755;28;19950;-77
2024/01/07 03:40:09;;;;;;;;;;;;;;;7.44;100.00;98603.78;6299767;28;19920;-77
2024/01/07 03:43:11;;;;;;;;;;;;;;;7.56;100.00;98599.50;6298854;28;19921;-77
2024/01/07 03:46:12;;;;;;;;;;;;;;;7.47;100.00;98607.00;6299585;28;19924;-77
2024/01/07 03:49:12;;;;;;;;;;;;;;;7.56;100.00;98596.91;6299868;28;19928;-78
2024/01/07 03:52:13;;;;;;;;;;;;;;;7.55;100.00;98608.22;6332146;28;19920;-77
2024/01/07 03:55:14;;;;;;;;;;;;;;;7.44;100.00;98604.63;6332104;28;19975;-77
2024/01/07 03:58:15;;;;;;;;;;;;;;;7.50;100.00;98590.38;6298248;28;20455;-77
2024/01/07 04:01:16;;;;;;;;;;;;;;;7.60;100.00;98599.16;6331623;28;19974;-74
2024/01/07 04:04:17;;;;;;;;;;;;;;;7.61;100.00;98600.81;6298127;28;20023;-73
2024/01/07 04:07:18;;;;;;;;;;;;;;;7.55;100.00;98596.06;6297934;28;19932;-74
2024/01/07 04:10:19;;;;;;;;;;;;;;;7.53;100.00;98594.50;6298149;28;19951;-77
2024/01/07 04:13:20;;;;;;;;;;;;;;;7.47;100.00;98596.63;6299023;28;19920;-77
2024/01/07 04:16:21;;;;;;;;;;;;;;;7.45;100.00;98598.50;6297546;28;20415;-77
2024/01/07 04:19:22;;;;;;;;;;;;;;;7.56;100.00;98589.94;6297670;28;20011;-74
2024/01/07 04:22:22;;;;;;;;;;;;;;;7.56;100.00;98594.31;6299135;28;19926;-77
2024/01/07 04:25:23;;;;;;;;;;;;;;;7.38;100.00;98601.63;6297614;28;20017;-77
2024/01/07 04:28:24;;;;;;;;;;;;;;;7.37;100.00;98605.16;6297462;28;20459;-77
2024/01/07 04:31:25;;;;;;;;;;;;;;;7.30;100.00;98594.38;6298723;28;19932;-75
2024/01/07 04:34:26;;;;;;;;;;;;;;;7.44;100.00;98593.41;6298337;28;19920;-77
2024/01/07 04:37:27;;;;;;;;;;;;;;;7.38;100.00;98599.84;6298388;28;19920;-77
2024/01/07 04:40:29;;;;;;;;;;;;;;;7.55;100.00;98595.22;6298339;28;20372;-77
2024/01/07 04:43:30;;;;;;;;;;;;;;;7.52;100.00;98591.09;6298445;28;19927;-74
2024/01/07 04:46:33;;;;;;;;;;;;;;;7.57;100.00;98591.59;6297939;28;19920;-74
2024/01/07 04:49:34;;;;;;;;;;;;;;;7.30;100.00;98591.78;6298392;28;19927;-73
2024/01/07 04:52:34;;;;;;;;;;;;;;;7.39;100.00;98595.50;6298079;28;19920;-73
2024/01/07 04:55:36;;;;;;;;;;;;;;;7.30;100.00;98598.75;6298168;28;19926;-74
2024/01/07 04:58:37;;;;;;;;;;;;;;;7.44;100.00;98596.00;6298055;28;19921;-74
2024/01/07 05:01:37;;;;;;;;;;;;;;;7.45;100.00;98601.09;6297598;28;19945;-74
2024/01/07 05:04:38;;;;;;;;;;;;;;;7.37;100.00;98589.59;6296461;28;19924;-73
2024/01/07 05:07:39;;;;;;;;;;;;;;;7.37;100.00;98595.63;6296326;28;20037;-74
2024/01/07 05:10:40;;;;;;;;;;;;;;;7.33;100.00;98585.53;6297559;28;20028;-74
2024/01/07 05:13:43;;;;;;;;;;;;;;;7.34;100.00;98595.00;6330018;28;19970;-73
2024/01/07 05:16:46;;;;;;;;;;;;;;;7.53;100.00;98591.91;6296347;28;19927;-74
2024/01/07 05:19:47;;;;;;;;;;;;;;;7.51;100.00;98592.03;6297415;28;19920;-74
2024/01/07 05:22:50;;;;;;;;;;;;;;;7.43;100.00;98596.94;6296345;28;19931;-74
2024/01/07 05:25:51;;;;;;;;;;;;;;;7.43;100.00;98597.78;6296093;28;19920;-73
2024/01/07 05:28:52;;;;;;;;;;;;;;;7.35;100.00;98597.50;6329866;28;19966;-74
2024/01/07 05:31:53;;;;;;;;;;;;;;;7.39;100.00;98593.75;6297200;28;19924;-74
2024/01/07 05:34:54;;;;;;;;;;;;;;;7.40;100.00;98597.16;6296971;28;20376;-74
2024/01/07 05:37:54;;;;;;;;;;;;;;;7.60;100.00;98603.53;6329471;28;19970;-73
2024/01/07 05:40:55;;;;;;;;;;;;;;;7.47;100.00;98607.00;6295735;28;19973;-74
2024/01/07 05:43:56;;;;;;;;;;;;;;;7.45;100.00;98608.03;6295542;28;19928;-74
2024/01/07 05:46:57;;;;;;;;;;;;;;;7.52;100.00;98604.06;6329386;28;19920;-74
2024/01/07 05:49:58;;;;;;;;;;;;;;;7.47;100.00;98614.78;6329635;28;19920;-73
2024/01/07 05:52:58;;;;;;;;;;;;;;;7.32;100.00;98599.47;6296930;28;19920;-74
2024/01/07 05:55:59;;;;;;;;;;;;;;;7.44;100.00;98606.38;6296683;28;20383;-73
2024/01/07 05:59:03;;;;;;;;;;;;;;;7.52;100.00;98600.66;6295729;28;19920;-74
2024/01/07 06:02:04;;;;;;;;;;;;;;;7.70;100.00;98601.94;6329045;28;19920;-73
2024/01/07 06:05:05;;;;;;;;;;;;;;;7.51;100.00;98601.56;6329245;28;19946;-73
2024/01/07 06:08:06;;;;;;;;;;;;;;;7.37;100.00;98598.22;6295491;28;19920;-73
2024/01/07 06:11:06;;;;;;;;;;;;;;;7.44;100.00;98601.19;6296824;28;19974;-73
2024/01/07 06:14:08;;;;;;;;;;;;;;;7.27;100.00;98594.63;6295386;28;20418;-73
2024/01/07 06:17:08;;;;;;;;;;;;;;;7.29;100.00;98600.53;6295506;28;19920;-73
2024/01/07 06:20:09;;;;;;;;;;;;;;;7.41;100.00;98597.06;6296465;28;19920;-73
2024/01/07 06:23:11;;;;;;;;;;;;;;;7.26;100.00;98598.94;6296815;28;19927;-73
2024/01/07 06:26:11;;;;;;;;;;;;;;;6.89;100.00;98605.06;6329085;28;19924;-73
2024/01/07 06:29:12;;;;;;;;;;;;;;;6.84;100.00;98603.59;6295146;28;19928;-73
2024/01/07 06:32:13;;;;;;;;;;;;;;;6.69;100.00;98612.41;6295366;28;19924;-73
2024/01/07 06:35:14;;;;;;;;;;;;;;;6.65;100.00;98614.41;6328666;28;20010;-73
2024/01/07 06:38:18;;;;;;;;;;;;;;;6.63;100.00;98615.41;6296397;28;20009;-73
2024/01/07 06:41:19;;;;;;;;;;;;;;;6.76;100.00;98607.66;6296307;28;19921;-73
2024/01/07 06:44:20;;;;;;;;;;;;;;;6.68;100.00;98607.34;6296670;28;19974;-73
2024/01/07 06:47:21;;;;;;;;;;;;;;;6.64;100.00;98604.13;6296081;28;19955;-73
2024/01/07 06:50:22;;;;;;;;;;;;;;;6.35;100.00;98611.28;6296454;28;19946;-74
2024/01/07 06:53:23;;;;;;;;;;;;;;;6.38;100.00;98609.31;6296401;28;19921;-74
2024/01/07 06:56:24;;;;;;;;;;;;;;;6.62;100.00;98611.19;6300848;28;20009;-73
2024/01/07 06:59:27;;;;;;;;;;;;;;;6.67;100.00;98611.69;6299824;28;19928;-74
2024/01/07 07:02:28;;;;;;;;;;;;;;;6.78;100.00;98608.38;6300462;28;19966;-72
2024/01/07 07:05:29;;;;;;;;;;;;;;;6.55;100.00;98605.59;6299360;28;19920;-72
2024/01/07 07:08:29;;;;;;;;;;;;;;;6.61;100.00;98606.94;6299291;28;19930;-73
2024/01/07 07:11:30;;;;;;;;;;;;;;;6.55;100.00;98609.97;6299431;28;20081;-72
2024/01/07 07:14:31;;;;;;;;;;;;;;;6.08;100.00;98609.59;6299331;28;19967;-76
2024/01/07 07:17:32;;;;;;;;;;;;;;;6.07;100.00;98607.91;6299177;28;19920;-76
2024/01/07 07:20:33;;;;;;;;;;;;;;;6.03;100.00;98611.63;6300314;28;19920;-76
2024/01/07 07:23:34;;;;;;;;;;;;;;;6.23;100.00;98624.09;6298895;28;19920;-76
2024/01/07 07:26:40;;;;;;;;;;;;;;;6.02;100.00;98613.41;6298941;28;20023;-76
2024/01/07 07:29:41;;;;;;;;;;;;;;;6.06;100.00;98616.63;6298979;28;19920;-76
2024/01/07 07:32:42;;;;;;;;;;;;;;;6.08;100.00;98619.13;6300389;28;19973;-76
2024/01/07 07:35:46;;;;;;;;;;;;;;;6.20;100.00;98623.50;6299977;28;19920;-76
2024/01/07 07:38:46;;;;;;;;;;;;;;;6.22;100.00;98622.47;6298789;28;20047;-76
2024/01/07 07:41:48;;;;;;;;;;;;;;;6.02;100.00;98623.75;6299835;28;19920;-76
2024/01/07 07:44:48;;;;;;;;;;;;;;;6.15;100.00;98622.94;6300072;28;19924;-76
2024/01/07 07:47:54;;;;;;;;;;;;;;;5.98;100.00;98619.69;6298359;28;19927;-76
2024/01/07 07:50:54;;;;;;;;;;;;;;;5.83;100.00;98612.91;6298728;28;19927;-76
2024/01/07 07:53:55;;;;;;;;;;;;;;;5.80;100.00;98611.31;6299753;28;19924;-76
2024/01/07 07:56:56;;;;;;;;;;;;;;;5.93;100.00;98620.88;6298323;28;19920;-76
2024/01/07 07:59:57;;;;;;;;;;;;;;;5.98;100.00;98616.28;6299400;28;19927;-76
2024/01/07 08:02:58;;;;;;;;;;;;;;;5.91;100.00;98615.84;6298063;28;20453;-76
2024/01/07 08:05:59;;;;;;;;;;;;;;;6.15;100.00;98616.00;6298910;28;20329;-76
2024/01/07 08:09:00;;;;;;;;;;;;;;;6.02;100.00;98615.97;6331565;28;19920;-76
2024/01/07 08:12:01;;;;;;;;;;;;;;;6.10;100.00;98606.91;6299143;28;20295;-76
2024/01/07 08:15:02;;;;;;;;;;;;;;;6.14;100.00;98605.78;6298986;28;20288;-76
2024/01/07 08:18:04;;;;;;;;;;;;;;;5.93;100.00;98602.78;6297854;28;19920;-76
2024/01/07 08:21:07;;;;;;;;;;;;;;;5.86;100.00;98600.56;6297663;28;20395;-76
2024/01/07 08:24:10;;;;;;;;;;;;;;;5.62;100.00;98605.59;6299109;28;19927;-76
2024/01/07 08:27:11;;;;;;;;;;;;;;;5.67;100.00;98602.69;6299056;28;19920;-76
2024/01/07 08:30:14;;;;;;;;;;;;;;;5.42;100.00;98599.09;6298697;28;19927;-75
2024/01/07 08:33:15;;;;;;;;;;;;;;;5.41;100.00;98612.09;6298744;28;20269;-76
2024/01/07 08:36:18;;;;;;;;;;;;;;;5.47;100.00;98613.47;6298402;28;19932;-75
2024/01/07 08:39:19;;;;;;;;;;;;;;;5.25;100.00;98620.00;6297359;28;19920;-75
2024/01/07 08:42:25;;;;;;;;;;;;;;;5.73;100.00;98609.25;6298349;28;19982;-76
2024/01/07 08:45:28;;;;;;;;;;;;;;;5.74;100.00;98614.31;6298578;28;19920;-75
2024/01/07 08:48:29;;;;;;;;;;;;;;;5.76;100.00;98615.03;6298074;28;19927;-75
2024/01/07 08:51:32;;;;;;;;;;;;;;;5.76;100.00;98622.81;6298151;28;19921;-75
2024/01/07 08:54:33;;;;;;;;;;;;;;;5.69;100.00;98615.56;6296902;28;20360;-75
2024/01/07 08:57:36;;;;;;;;;;;;;;;5.50;100.00;98621.91;6296859;28;19927;-75
2024/01/07 09:00:40;;;;;;;;;;;;;;;5.26;100.00;98606.16;6296785;28;19970;-71
2024/01/07 09:03:42;;;;;;;;;;;;;;;5.34;100.00;98618.59;6296442;28;19920;-72
2024/01/07 09:06:45;;;;;;;;;;;;;;;5.64;100.00;98608.91;6297861;28;19927;-71
2024/01/07 09:09:45;;;;;;;;;;;;;;;5.51;100.00;98597.66;6296354;28;20291;-72
2024/01/07 09:12:46;;;;;;;;;;;;;;;5.24;100.00;98600.22;6297794;28;19920;-72
2024/01/07 09:15:47;;;;;;;;;;;;;;;5.40;100.00;98589.75;6296321;28;19974;-72
2024/01/07 09:18:48;;;;;;;;;;;;;;;5.47;100.00;98583.25;6329179;28;19925;-71
2024/01/07 09:21:49;;;;;;;;;;;;;;;5.27;100.00;98597.44;6296091;28;20615;-72
2024/01/07 09:24:50;;;;;;;;;;;;;;;5.13;100.00;98590.56;6296480;28;20007;-71
2024/01/07 09:27:53;;;;;;;;;;;;;;;5.39;100.00;98591.50;6296078;28;20012;-72
2024/01/07 09:30:56;;;;;;;;;;;;;;;5.62;100.00;98581.44;6296073;28;19920;-71
2024/01/07 09:33:57;;;;;;;;;;;;;;;5.27;100.00;98576.75;6296101;28;19920;-71
2024/01/07 09:36:58;;;;;;;;;;;;;;;5.20;100.00;98583.25;6296927;28;20011;-71
2024/01/07 09:39:59;;;;;;;;;;;;;;;5.53;100.00;98587.22;6297392;28;19928;-71
2024/01/07 09:42:59;;;;;;;;;;;;;;;5.41;100.00;98575.88;6295771;28;20295;-72
2024/01/07 09:46:00;;;;;;;;;;;;;;;5.34;100.00;98572.03;6295810;28;20291;-71
2024/01/07 09:49:01;;;;;;;;;;;;;;;5.38;100.00;98568.34;6296851;28;19927;-71
2024/01/07 09:52:03;;;;;;;;;;;;;;;5.38;100.00;98570.94;6295817;28;20380;-70
2024/01/07 09:55:08;;;;;;;;;;;;;;;5.49;100.00;98568.47;6296956;28;19924;-72
2024/01/07 09:58:11;;;;;;;;;;;;;;;5.60;100.00;98571.22;6296635;28;19924;-72
2024/01/07 10:01:12;;;;;;;;;;;;;;;5.57;100.00;98561.06;6296538;28;20558;-71
2024/01/07 10:04:13;;;;;;;;;;;;;;;5.65;100.00;98565.75;6297242;28;19924;-71
2024/01/07 10:07:14;;;;;;;;;;;;;;;5.45;100.00;98554.91;6296922;28;19921;-71
2024/01/07 10:10:16;;;;;;;;;;;;;;;5.61;100.00;98552.16;6296548;28;20381;-72
2024/01/07 10:13:17;;;;;;;;;;;;;;;5.76;100.00;98559.88;6295578;28;20287;-71
2024/01/07 10:16:20;;;;;;;;;;;;;;;5.77;100.00;98546.00;6296453;28;19927;-71
2024/01/07 10:19:22;;;;;;;;;;;;;;;5.43;100.00;98538.66;6295484;28;19924;-71
2024/01/07 10:22:23;;;;;;;;;;;;;;;5.51;100.00;98545.91;6296463;28;20399;-71
2024/01/07 10:25:24;;;;;;;;;;;;;;;5.72;100.00;98537.69;6329266;28;19921;-71
2024/01/07 10:28:24;;;;;;;;;;;;;;;5.58;100.00;98543.75;6296821;28;19924;-71
2024/01/07 10:31:25;;;;;;;;;;;;;;;5.53;100.00;98538.06;6301661;28;19931;-74
2024/01/07 10:34:28;;;;;;;;;;;;;;;5.79;100.00;98536.38;6334056;28;20441;-72
2024/01/07 10:37:28;;;;;;;;;;;;;;;5.69;100.00;98536.16;6299960;28;19920;-71
2024/01/07 10:40:30;;;;;;;;;;;;;;;5.84;100.00;98534.31;6300139;28;20014;-75
2024/01/07 10:43:34;;;;;;;;;;;;;;;5.97;100.00;98527.44;6299914;28;20344;-75
2024/01/07 10:46:35;;;;;;;;;;;;;;;5.85;100.00;98523.03;6301237;28;19926;-75
2024/01/07 10:49:36;;;;;;;;;;;;;;;6.09;100.00;98517.19;6299713;28;19924;-75
2024/01/07 10:52:38;;;;;;;;;;;;;;;6.07;100.00;98516.47;6301159;28;20405;-75
2024/01/07 10:55:43;;;;;;;;;;;;;;;6.20;100.00;98510.34;6299755;28;19924;-75
2024/01/07 10:58:45;;;;;;;;;;;;;;;6.56;100.00;98498.41;6299695;28;19927;-75
2024/01/07 11:01:46;;;;;;;;;;;;;;;6.46;100.00;98492.19;6299219;28;19920;-75
2024/01/07 11:05:19;;;;;;;;;;;;;;;6.33;100.00;98489.63;6300875;28;20453;-75
2024/01/07 11:08:40;;;;;;;;;;;;;;;6.72;100.00;98487.81;6266798;28;19927;-76
2024/01/07 11:11:42;;;;;;;;;;;;;;;6.63;100.00;98478.06;6299299;28;20435;-75
2024/01/07 11:14:52;;;;;;;;;;;;;;;6.35;100.00;98479.97;6300379;28;19920;-76
2024/01/07 11:17:55;;;;;;;;;;;;;;;6.66;100.00;98472.69;6299288;28;20333;-76
2024/01/07 11:20:58;;;;;;;;;;;;;;;6.70;100.00;98481.06;6300169;28;19924;-76
2024/01/07 11:23:59;;;;;;;;;;;;;;;6.73;100.00;98465.28;6300163;28;19927;-75
2024/01/07 11:27:02;;;;;;;;;;;;;;;6.49;100.00;98473.03;6298913;28;20279;-76
2024/01/07 11:30:06;;;;;;;;;;;;;;;6.84;100.00;98466.19;6300047;28;19920;-76
2024/01/07 11:33:11;;;;;;;;;;;;;;;6.95;100.00;98467.19;6298760;28;20387;-76
2024/01/07 11:36:15;;;;;;;;;;;;;;;6.81;100.00;98461.22;6299874;28;20431;-76
2024/01/07 11:39:16;;;;;;;;;;;;;;;6.61;100.00;98467.81;6299665;28;19978;-76
2024/01/07 11:42:17;;;;;;;;;;;;;;;6.69;100.00;98467.25;6299988;28;19921;-75
2024/01/07 11:45:18;;;;;;;;;;;;;;;6.50;100.00;98459.94;6299793;28;20291;-76
2024/01/07 11:48:19;;;;;;;;;;;;;;;6.53;100.00;98459.75;6299998;28;19921;-76
2024/01/07 11:51:20;;;;;;;;;;;;;;;6.47;100.00;98460.19;6332337;28;19931;-76
2024/01/07 11:54:21;;;;;;;;;;;;;;;6.80;100.00;98449.19;6298659;28;19925;-76
2024/01/07 11:57:22;;;;;;;;;;;;;;;6.86;100.00;98441.00;6299590;28;19920;-76
2024/01/07 12:00:23;;;;;;;;;;;;;;;6.64;100.00;98449.44;6298157;28;19920;-76
2024/01/07 12:03:24;;;;;;;;;;;;;;;6.86;100.00;98448.78;6297963;28;19920;-72
2024/01/07 12:06:24;;;;;;;;;;;;;;;6.83;99.54;98451.56;6299233;28;19926;-72
2024/01/07 12:09:25;;;;;;;;;;;;;;;7.33;100.00;98451.47;6299330;28;19999;-71
2024/01/07 12:12:26;;;;;;;;;;;;;;;7.46;100.00;98443.59;6299132;28;19931;-71
2024/01/07 12:15:27;;;;;;;;;;;;;;;7.11;100.00;98438.41;6299301;28;20005;-71
2024/01/07 12:18:31;;;;;;;;;;;;;;;6.88;99.04;98437.44;6298949;28;20348;-72
2024/01/07 12:21:32;;;;;;;;;;;;;;;7.20;99.61;98459.31;6297535;28;19920;-72
2024/01/07 12:24:33;;;;;;;;;;;;;;;7.41;98.54;98456.06;6298024;28;19920;-72
2024/01/07 12:27:37;;;;;;;;;;;;;;;6.98;98.08;98459.19;6297538;28;19920;-72
2024/01/07 12:30:38;;;;;;;;;;;;;;;6.92;97.35;98450.09;6297569;28;19920;-72
2024/01/07 12:33:42;;;;;;;;;;;;;;;6.97;97.55;98454.94;6297391;28;19920;-72
2024/01/07 12:36:43;;;;;;;;;;;;;;;7.03;97.69;98449.31;6298629;28;19920;-72
2024/01/07 12:39:44;;;;;;;;;;;;;;;7.10;95.70;98449.69;6298425;28;19927;-72
2024/01/07 12:42:44;;;;;;;;;;;;;;;6.76;96.80;98457.31;6297379;28;19944;-72
2024/01/07 12:45:46;;;;;;;;;;;;;;;6.77;97.11;98452.00;6298316;28;19973;-71
2024/01/07 12:48:47;;;;;;;;;;;;;;;6.54;96.31;98473.53;6296973;28;19920;-72
2024/01/07 12:51:48;;;;;;;;;;;;;;;6.59;97.00;98450.69;6297078;28;19924;-72
2024/01/07 12:54:49;;;;;;;;;;;;;;;6.90;96.09;98458.91;6297979;28;19970;-72
2024/01/07 12:57:52;;;;;;;;;;;;;;;6.35;95.22;98454.06;6297789;28;19920;-71
2024/01/07 13:00:55;;;;;;;;;;;;;;;6.29;95.99;98466.63;6297680;28;20389;-72
2024/01/07 13:04:00;;;;;;;;;;;;;;;6.33;95.21;98460.31;6297845;28;20281;-72
2024/01/07 13:07:01;;;;;;;;;;;;;;;6.27;94.48;98458.97;6297694;28;20071;-72
2024/01/07 13:10:02;;;;;;;;;;;;;;;6.20;94.28;98466.31;6297803;28;19920;-72
2024/01/07 13:13:03;;;;;;;;;;;;;;;6.41;93.39;98458.03;6297714;28;19973;-72
2024/01/07 13:16:04;;;;;;;;;;;;;;;6.35;93.79;98467.03;6297855;28;19920;-73
2024/01/07 13:19:05;;;;;;;;;;;;;;;6.01;93.20;98477.13;6296312;28;19927;-72
2024/01/07 13:22:05;;;;;;;;;;;;;;;6.32;94.15;98485.38;6296415;28;19932;-72
2024/01/07 13:25:06;;;;;;;;;;;;;;;5.98;93.73;98482.47;6297516;28;19927;-73
2024/01/07 13:28:10;;;;;;;;;;;;;;;5.47;94.65;98484.97;6297232;28;20289;-72
2024/01/07 13:31:13;;;;;;;;;;;;;;;5.32;96.56;98481.63;6297986;28;19920;-72
2024/01/07 13:34:14;;;;;;;;;;;;;;;4.95;98.61;98488.31;6297240;28;19921;-70
2024/01/07 13:37:15;;;;;;;;;;;;;;;4.55;98.52;98490.75;6296051;28;19927;-71
2024/01/07 13:40:17;;;;;;;;;;;;;;;4.56;100.00;98492.44;6296957;28;19924;-71
2024/01/07 13:43:17;;;;;;;;;;;;;;;4.46;100.00;98497.31;6297297;28;19927;-71
2024/01/07 13:46:19;;;;;;;;;;;;;;;4.47;100.00;98501.56;6295826;28;19924;-71
2024/01/07 13:49:20;;;;;;;;;;;;;;;4.24;100.00;98500.34;6295801;28;20352;-71
2024/01/07 13:52:21;;;;;;;;;;;;;;;4.18;100.00;98514.47;6329384;28;19920;-72
2024/01/07 13:55:22;;;;;;;;;;;;;;;3.94;100.00;98515.91;6296871;28;20391;-71
2024/01/07 13:58:23;;;;;;;;;;;;;;;4.06;100.00;98525.53;6295800;28;19921;-75
2024/01/07 14:01:24;;;;;;;;;;;;;;;4.30;100.00;98536.13;6295285;28;19927;-75
2024/01/07 14:04:27;;;;;;;;;;;;;;;4.01;100.00;98543.03;6296261;28;19921;-75
2024/01/07 14:07:28;;;;;;;;;;;;;;;3.91;100.00;98532.41;6296736;28;19931;-75
2024/01/07 14:10:32;;;;;;;;;;;;;;;3.76;100.00;98539.28;6296716;28;20444;-76
2024/01/07 14:13:33;;;;;;;;;;;;;;;3.65;100.00;98557.13;6296900;28;19966;-76
2024/01/07 14:16:33;;;;;;;;;;;;;;;3.50;100.00;98556.25;6296847;28;19920;-75
2024/01/07 14:19:34;;;;;;;;;;;;;;;3.48;100.00;98555.50;6295538;28;19927;-76
2024/01/07 14:22:35;;;;;;;;;;;;;;;3.57;100.00;98554.97;6328984;28;19920;-75
2024/01/07 14:25:36;;;;;;;;;;;;;;;3.39;100.00;98558.56;6296628;28;20400;-75
2024/01/07 14:28:36;;;;;;;;;;;;;;;3.34;100.00;98565.75;6296471;28;19973;-75
2024/01/07 14:31:37;;;;;;;;;;;;;;;3.29;100.00;98563.41;6295363;28;19921;-76
2024/01/07 14:34:39;;;;;;;;;;;;;;;3.15;100.00;98571.91;6328936;28;19927;-71
2024/01/07 14:37:40;;;;;;;;;;;;;;;3.09;100.00;98571.38;6295228;28;19957;-72
2024/01/07 14:40:46;;;;;;;;;;;;;;;2.89;100.00;98582.78;6328665;28;20303;-72
2024/01/07 14:43:47;;;;;;;;;;;;;;;2.83;100.00;98573.63;6329150;28;19920;-72
2024/01/07 14:46:48;;;;;;;;;;;;;;;2.82;100.00;98589.97;6295091;28;19920;-72
2024/01/07 14:49:48;;;;;;;;;;;;;;;2.81;100.00;98591.72;6295265;28;20411;-71
2024/01/07 14:52:49;;;;;;;;;;;;;;;2.79;100.00;98590.16;6294982;28;20521;-71
2024/01/07 14:55:51;;;;;;;;;;;;;;;2.53;100.00;98601.78;6296020;28;19941;-71
2024/01/07 14:58:52;;;;;;;;;;;;;;;2.49;100.00;98593.41;6296260;28;19965;-71
2024/01/07 15:01:53;;;;;;;;;;;;;;;2.34;100.00;98599.31;6294671;28;19946;-71
2024/01/07 15:04:54;;;;;;;;;;;;;;;2.22;100.00;98600.75;6296411;28;19955;-71
2024/01/07 15:07:56;;;;;;;;;;;;;;;2.11;100.00;98590.19;6296103;28;20275;-72
2024/01/07 15:10:57;;;;;;;;;;;;;;;2.26;100.00;98598.88;6296083;28;19924;-71
2024/01/07 15:13:57;;;;;;;;;;;;;;;2.09;100.00;98585.09;6294718;28;19924;-71
2024/01/07 15:16:59;;;;;;;;;;;;;;;2.14;100.00;98598.59;6299832;28;20383;-71
2024/01/07 15:19:59;;;;;;;;;;;;;;;2.00;100.00;98601.03;6300284;28;19920;-71
2024/01/07 15:23:00;;;;;;;;;;;;;;;2.09;100.00;98597.16;6300232;28;20395;-72
2024/01/07 15:26:01;;;;;;;;;;;;;;;1.70;100.00;98598.19;6300337;28;19927;-71
2024/01/07 15:29:02;;;;;;;;;;;;;;;1.79;100.00;98600.28;6300072;28;19920;-71
2024/01/07 15:32:02;;;;;;;;;;;;;;;1.65;100.00;98611.25;6298754;28;19927;-71
2024/01/07 15:35:06;;;;;;;;;;;;;;;1.68;100.00;98615.41;6300064;28;19920;-71
2024/01/07 15:38:07;;;;;;;;;;;;;;;1.60;100.00;98610.63;6298702;28;19929;-71
2024/01/07 15:41:08;;;;;;;;;;;;;;;1.67;100.00;98612.03;6298623;28;19920;-70
2024/01/07 15:44:09;;;;;;;;;;;;;;;1.65;100.00;98608.69;6300007;28;19920;-71
2024/01/07 15:47:10;;;;;;;;;;;;;;;1.61;100.00;98625.16;6299757;28;19927;-70